createdAt,value
2023-11-12T00:03:34.448Z,2.60
2023-11-12T00:08:36.004Z,1.92
2023-11-12T00:13:37.574Z,2.47
2023-11-12T00:18:40.452Z,2.63
2023-11-12T00:23:41.994Z,2.05
2023-11-12T00:28:43.662Z,2.35
2023-11-12T00:33:45.943Z,2.17
2023-11-12T00:38:48.630Z,2.20
2023-11-12T00:43:50.450Z,2.85
2023-11-12T00:48:52.051Z,2.30
2023-11-12T00:53:53.565Z,2.60
2023-11-12T00:58:55.097Z,2.80
2023-11-12T01:03:57.300Z,2.00
2023-11-12T01:08:58.897Z,2.58
2023-11-12T01:19:06.957Z,2.70
2023-11-12T01:24:09.201Z,2.47
2023-11-12T01:29:11.450Z,2.83
2023-11-12T01:34:15.187Z,2.40
2023-11-12T01:39:16.788Z,2.45
2023-11-12T01:44:18.517Z,1.92
2023-11-12T01:49:21.634Z,2.17
2023-11-12T01:54:28.194Z,1.90
2023-11-12T01:59:31.983Z,1.90
2023-11-12T02:04:33.593Z,2.40
2023-11-12T02:09:35.189Z,2.95
2023-11-12T02:14:39.132Z,2.90
2023-11-12T02:19:40.655Z,2.38
2023-11-12T02:24:43.592Z,2.40
2023-11-12T02:29:49.805Z,2.53
2023-11-12T02:34:51.387Z,2.83
2023-11-12T02:39:53.041Z,2.53
2023-11-12T02:44:54.844Z,2.60
2023-11-12T02:50:15.483Z,2.95
2023-11-12T02:55:18.090Z,2.72
2023-11-12T03:00:19.946Z,3.13
2023-11-12T03:05:21.983Z,2.67
2023-11-12T03:10:24.096Z,3.30
2023-11-12T03:15:26.658Z,2.70
2023-11-12T03:20:28.318Z,2.80
2023-11-12T03:25:29.835Z,2.80
2023-11-12T03:30:31.849Z,2.58
2023-11-12T03:40:34.765Z,3.38
2023-11-12T03:45:36.486Z,2.45
2023-11-12T03:50:38.551Z,2.67
2023-11-12T04:00:42.333Z,2.63
2023-11-12T04:05:44.009Z,2.55
2023-11-12T04:10:47.005Z,2.78
2023-11-12T04:15:48.620Z,2.97
2023-11-12T04:20:50.258Z,2.50
2023-11-12T04:25:51.747Z,3.10
2023-11-12T04:30:53.431Z,2.53
2023-11-12T04:35:54.924Z,2.55
2023-11-12T04:40:56.656Z,2.40
2023-11-12T04:45:58.239Z,2.90
2023-11-12T04:51:00.425Z,2.90
2023-11-12T04:56:02.071Z,2.85
2023-11-12T05:01:07.694Z,3.80
2023-11-12T05:06:09.774Z,3.40
2023-11-12T05:11:11.339Z,2.92
2023-11-12T05:16:12.845Z,2.78
2023-11-12T05:21:14.400Z,2.83
2023-11-12T05:26:16.048Z,2.80
2023-11-12T05:31:17.672Z,2.95
2023-11-12T05:36:19.272Z,2.15
2023-11-12T05:41:21.167Z,2.60
2023-11-12T05:46:22.777Z,2.67
2023-11-12T05:51:24.315Z,2.58
2023-11-12T05:56:25.927Z,2.60
2023-11-12T06:01:27.897Z,3.00
2023-11-12T06:11:31.093Z,2.33
2023-11-12T06:16:32.681Z,2.05
2023-11-12T06:21:34.285Z,2.97
2023-11-12T06:26:35.860Z,2.78
2023-11-12T06:31:37.346Z,2.28
2023-11-12T06:36:38.992Z,2.70
2023-11-12T06:41:43.635Z,1.63
2023-11-12T06:46:46.315Z,2.67
2023-11-12T06:51:47.933Z,2.05
2023-11-12T06:56:49.613Z,2.67
2023-11-12T07:01:51.168Z,2.40
2023-11-12T07:07:05.521Z,3.22
2023-11-12T07:12:11.166Z,3.17
2023-11-12T07:17:12.698Z,2.20
2023-11-12T07:22:14.262Z,2.15
2023-11-12T07:27:15.828Z,2.60
2023-11-12T07:32:17.347Z,2.38
2023-11-12T07:37:18.847Z,2.35
2023-11-12T07:42:20.557Z,2.20
2023-11-12T07:47:22.377Z,2.75
2023-11-12T07:52:23.871Z,2.30
2023-11-12T07:57:25.456Z,3.00
2023-11-12T08:02:27.505Z,3.08
2023-11-12T08:12:30.480Z,2.70
2023-11-12T08:17:32.445Z,2.78
2023-11-12T08:27:36.416Z,2.70
2023-11-12T08:32:38.231Z,2.78
2023-11-12T08:37:39.905Z,2.63
2023-11-12T08:42:41.538Z,2.83
2023-11-12T08:47:43.084Z,2.70
2023-11-12T08:52:44.706Z,2.28
2023-11-12T08:57:46.300Z,2.55
2023-11-12T09:02:47.941Z,2.63
2023-11-12T09:07:49.823Z,3.63
2023-11-12T09:17:54.584Z,2.13
2023-11-12T09:22:56.109Z,2.78
2023-11-12T09:27:57.730Z,2.63
2023-11-12T09:32:59.306Z,2.50
2023-11-12T09:38:00.911Z,2.28
2023-11-12T09:43:03.995Z,2.20
2023-11-12T09:48:17.947Z,3.00
2023-11-12T09:53:20.365Z,2.50
2023-11-12T09:58:21.936Z,2.63
2023-11-12T10:03:23.563Z,1.83
2023-11-12T10:08:25.365Z,1.88
2023-11-12T10:13:37.420Z,2.30
2023-11-12T10:18:39.451Z,2.17
2023-11-12T10:23:40.959Z,2.58
2023-11-12T10:28:42.630Z,2.30
2023-11-12T10:33:59.926Z,2.22
2023-11-12T10:39:06.962Z,1.83
2023-11-12T10:44:12.367Z,1.85
2023-11-12T10:49:14.241Z,1.92
2023-11-12T10:59:19.221Z,2.50
2023-11-12T11:04:22.217Z,1.63
2023-11-12T11:09:24.352Z,1.63
2023-11-12T11:14:30.885Z,2.00
2023-11-12T11:19:44.729Z,1.70
2023-11-12T11:24:46.515Z,1.48
2023-11-12T11:35:19.183Z,1.77
2023-11-12T11:40:34.201Z,1.33
2023-11-12T11:46:08.849Z,1.40
2023-11-12T11:51:40.179Z,1.20
2023-11-12T11:56:41.897Z,1.20
2023-11-12T12:01:48.166Z,1.50
2023-11-12T12:06:51.093Z,1.65
2023-11-12T12:11:54.186Z,2.83
2023-11-12T12:17:07.209Z,2.95
2023-11-12T12:22:09.358Z,1.33
2023-11-12T12:27:11.001Z,1.30
2023-11-12T12:32:15.008Z,1.48
2023-11-12T12:37:25.488Z,1.00
2023-11-12T12:42:28.905Z,1.50
2023-11-12T12:47:39.313Z,1.30
2023-11-12T12:52:45.777Z,1.60
2023-11-12T12:57:52.152Z,1.27
2023-11-12T13:02:54.102Z,1.30
2023-11-12T13:07:56.237Z,1.27
2023-11-12T13:12:57.801Z,1.40
2023-11-12T13:17:59.396Z,1.40
2023-11-12T13:23:02.085Z,1.08
2023-11-12T13:28:06.610Z,1.10
2023-11-12T13:33:08.945Z,1.33
2023-11-12T13:38:11.214Z,2.35
2023-11-12T13:43:13.062Z,1.20
2023-11-12T13:48:14.672Z,0.98
2023-11-12T13:53:16.414Z,1.30
2023-11-12T14:03:20.949Z,1.20
2023-11-12T14:08:22.563Z,0.95
2023-11-12T14:13:25.055Z,0.90
2023-11-12T14:18:26.663Z,1.00
2023-11-12T14:23:29.980Z,0.95
2023-11-12T14:28:32.531Z,0.70
2023-11-12T14:33:34.975Z,0.90
2023-11-12T14:38:36.628Z,1.00
2023-11-12T14:43:38.791Z,1.08
2023-11-12T14:48:40.442Z,0.85
2023-11-12T14:53:42.087Z,1.13
2023-11-12T14:58:43.715Z,1.13
2023-11-12T15:03:45.374Z,0.90
2023-11-12T15:08:46.930Z,0.75
2023-11-12T15:13:48.461Z,0.80
2023-11-12T15:18:50.188Z,0.80
2023-11-12T15:28:55.610Z,0.70
2023-11-12T15:33:57.598Z,0.95
2023-11-12T15:38:59.184Z,0.80
2023-11-12T15:44:01.541Z,0.63
2023-11-12T15:49:03.175Z,0.90
2023-11-12T15:54:05.891Z,0.70
2023-11-12T15:59:07.853Z,1.20
2023-11-12T16:04:09.500Z,1.27
2023-11-12T16:09:12.933Z,1.77
2023-11-12T16:14:14.446Z,1.90
2023-11-12T16:19:16.191Z,3.72
2023-11-12T16:29:19.393Z,2.90
2023-11-12T16:34:20.933Z,1.60
2023-11-12T16:39:22.450Z,1.70
2023-11-12T16:44:25.493Z,1.75
2023-11-12T16:49:27.464Z,1.85
2023-11-12T16:54:29.282Z,2.13
2023-11-12T17:04:32.672Z,2.22
2023-11-12T17:09:34.243Z,2.92
2023-11-12T17:14:36.978Z,1.58
2023-11-12T17:19:38.624Z,2.08
2023-11-12T17:24:40.215Z,1.52
2023-11-12T17:29:41.805Z,1.65
2023-11-12T17:34:43.672Z,1.13
2023-11-12T17:39:45.466Z,1.92
2023-11-12T17:44:49.718Z,1.90
2023-11-12T17:49:56.692Z,1.63
2023-11-12T17:54:58.426Z,2.15
2023-11-12T18:00:00.255Z,3.30
2023-11-12T18:10:04.811Z,2.35
2023-11-12T18:15:07.081Z,2.15
2023-11-12T18:20:08.973Z,1.73
2023-11-12T18:25:10.759Z,2.17
2023-11-12T18:35:15.092Z,2.75
2023-11-12T18:40:18.545Z,1.52
2023-11-12T18:45:20.456Z,2.13
2023-11-12T18:50:22.394Z,2.03
2023-11-12T19:00:25.553Z,2.33
2023-11-12T19:05:27.055Z,1.60
2023-11-12T19:10:31.001Z,1.70
2023-11-12T19:15:32.591Z,1.50
2023-11-12T19:20:40.822Z,2.20
2023-11-12T19:25:44.288Z,1.90
2023-11-12T19:30:47.495Z,2.08
2023-11-12T19:35:51.458Z,1.92
2023-11-12T19:40:53.185Z,1.90
2023-11-12T19:50:56.182Z,1.90
2023-11-12T19:55:58.152Z,1.75
2023-11-12T20:01:00.566Z,2.10
2023-11-12T20:06:02.948Z,1.85
2023-11-12T20:11:05.329Z,1.58
2023-11-12T20:16:10.367Z,2.63
2023-11-12T20:21:11.975Z,2.30
2023-11-12T20:26:16.504Z,2.00
2023-11-12T20:31:18.629Z,2.10
2023-11-12T20:36:20.262Z,1.50
2023-11-12T20:41:21.844Z,2.45
2023-11-12T20:46:23.432Z,2.28
2023-11-12T20:51:25.466Z,1.98
2023-11-12T20:56:26.965Z,2.13
2023-11-12T21:01:32.846Z,2.38
2023-11-12T21:06:35.954Z,1.92
2023-11-12T21:11:46.875Z,2.20
2023-11-12T21:16:50.355Z,2.40
2023-11-12T21:21:52.021Z,2.00
2023-11-12T21:26:53.564Z,2.28
2023-11-12T21:31:55.433Z,2.20
2023-11-12T21:36:57.020Z,2.13
2023-11-12T21:41:58.519Z,1.88
2023-11-12T21:47:00.926Z,2.10
2023-11-12T21:52:03.323Z,2.10
2023-11-12T21:57:05.101Z,1.88
2023-11-12T22:02:07.662Z,1.70
2023-11-12T22:07:09.345Z,1.80
2023-11-12T22:12:12.193Z,2.10
2023-11-12T22:17:13.778Z,1.65
2023-11-12T22:22:15.350Z,1.63
2023-11-12T22:27:16.882Z,1.65
2023-11-12T22:32:18.388Z,1.75
2023-11-12T22:37:20.064Z,1.88
2023-11-12T22:42:21.623Z,1.80
2023-11-12T22:47:23.116Z,2.60
2023-11-12T22:52:24.624Z,1.90
2023-11-12T22:57:26.763Z,1.73
2023-11-12T23:02:28.536Z,1.70
2023-11-12T23:12:34.420Z,1.50
2023-11-12T23:17:36.062Z,1.50
2023-11-12T23:22:37.740Z,1.98
2023-11-12T23:27:39.645Z,1.40
2023-11-12T23:32:43.397Z,1.27
2023-11-12T23:37:44.938Z,1.45
2023-11-12T23:42:46.907Z,1.73
2023-11-12T23:47:48.513Z,1.83
2023-11-12T23:52:50.054Z,1.50
2023-11-12T23:57:52.717Z,1.70
